Time;durP1;ratioP1;P1;durP2;ratioP2;P2;SDS_P1;SDS_P2;PMS_P1;PMS_P2;Temp;Humidity;BMP_temperature;BMP_pressure;BME280_temperature;BME280_humidity;BME280_pressure;Samples;Min_cycle;Max_cycle;Signal;HPM_P1;HPM_P2
2022/12/02 00:00:27;;;;;;;29.03;21.80;;;5.80;99.70;;;;;;5000775;28;20186;-81
2022/12/02 00:02:56;;;;;;;30.70;22.53;;;5.70;98.90;;;;;;5006441;28;20213;-81
2022/12/02 00:05:32;;;;;;;31.73;22.60;;;5.70;99.40;;;;;;5007171;28;20257;-81
2022/12/02 00:08:09;;;;;;;29.53;21.77;;;5.70;98.70;;;;;;5020689;28;20182;-81
2022/12/02 00:10:37;;;;;;;29.93;23.00;;;5.70;99.20;;;;;;5002335;28;20182;-82
2022/12/02 00:13:21;;;;;;;32.37;23.93;;;5.70;98.70;;;;;;5007103;28;20199;-81
2022/12/02 00:15:51;;;;;;;31.37;22.40;;;5.70;98.30;;;;;;5018631;28;20226;-82
2022/12/02 00:18:17;;;;;;;28.10;21.23;;;5.70;98.60;;;;;;5020203;28;20501;-83
2022/12/02 00:20:44;;;;;;;30.97;22.70;;;5.70;99.50;;;;;;5036178;28;20169;-83
2022/12/02 00:23:10;;;;;;;28.37;21.97;;;5.70;99.30;;;;;;5035066;28;20226;-84
2022/12/02 00:25:36;;;;;;;27.60;22.27;;;5.80;98.70;;;;;;5014561;28;20252;-81
2022/12/02 00:28:02;;;;;;;29.57;22.20;;;5.80;98.10;;;;;;5004526;28;20198;-80
2022/12/02 00:30:28;;;;;;;32.10;23.43;;;5.80;98.10;;;;;;5004167;28;20202;-81
2022/12/02 00:32:54;;;;;;;28.93;22.70;;;5.80;98.50;;;;;;5004040;28;20210;-80
2022/12/02 00:35:22;;;;;;;31.50;24.30;;;5.60;98.60;;;;;;5003992;28;20193;-81
2022/12/02 00:37:47;;;;;;;30.93;22.93;;;5.70;98.90;;;;;;5004383;28;20185;-80
2022/12/02 00:40:13;;;;;;;32.70;23.27;;;5.60;98.80;;;;;;5002306;28;20216;-81
2022/12/02 00:42:39;;;;;;;29.77;22.97;;;5.70;99.30;;;;;;5018276;28;20202;-79
2022/12/02 00:48:00;;;;;;;29.63;22.50;;;5.60;99.40;;;;;;4967416;28;20496;-82
2022/12/02 00:50:27;;;;;;;34.37;24.50;;;5.60;99.10;;;;;;5003914;28;20190;-80
2022/12/02 00:52:53;;;;;;;35.23;23.33;;;5.60;99.40;;;;;;5004039;28;20696;-80
2022/12/02 00:55:19;;;;;;;33.83;25.33;;;5.50;99.30;;;;;;4996474;28;20209;-82
2022/12/02 00:57:45;;;;;;;31.03;23.97;;;5.50;99.50;;;;;;5003923;28;20190;-82
2022/12/02 01:00:11;;;;;;;31.70;23.70;;;5.50;99.70;;;;;;5003494;28;20328;-81
2022/12/02 01:02:37;;;;;;;34.07;23.97;;;5.50;99.90;;;;;;5003317;28;20206;-81
2022/12/02 01:05:04;;;;;;;30.07;23.30;;;5.60;99.90;;;;;;5004190;28;20241;-81
2022/12/02 01:07:29;;;;;;;32.93;24.13;;;5.50;99.50;;;;;;5003588;28;20186;-82
2022/12/02 01:09:55;;;;;;;31.13;22.40;;;5.60;99.90;;;;;;5003703;28;20221;-80
2022/12/02 01:12:21;;;;;;;30.67;22.60;;;5.60;99.90;;;;;;5004540;28;20213;-81
2022/12/02 01:14:46;;;;;;;31.97;23.90;;;5.60;99.90;;;;;;5004581;28;20261;-81
2022/12/02 01:17:12;;;;;;;30.60;22.37;;;5.60;99.70;;;;;;5004415;28;20182;-83
2022/12/02 01:19:38;;;;;;;32.37;21.87;;;5.60;99.50;;;;;;5004646;28;20655;-80
2022/12/02 01:22:03;;;;;;;30.57;21.63;;;5.60;99.90;;;;;;5003491;28;20210;-81
2022/12/02 01:24:29;;;;;;;27.83;22.17;;;5.80;99.80;;;;;;5003219;28;20225;-81
2022/12/02 01:26:55;;;;;;;33.97;23.07;;;5.80;99.10;;;;;;5003122;28;20190;-80
2022/12/02 01:29:20;;;;;;;35.53;24.87;;;5.90;99.10;;;;;;5018340;28;20242;-80
2022/12/02 01:31:46;;;;;;;34.33;24.47;;;5.90;98.80;;;;;;5003250;28;20807;-81
2022/12/02 01:34:12;;;;;;;29.23;22.37;;;5.80;98.10;;;;;;5003072;28;20679;-83
2022/12/02 01:36:37;;;;;;;29.57;23.13;;;5.80;98.70;;;;;;5003407;28;20193;-80
2022/12/02 01:39:03;;;;;;;30.73;22.00;;;5.70;99.80;;;;;;5002997;28;20213;-82
2022/12/02 01:41:29;;;;;;;27.93;22.17;;;5.70;99.50;;;;;;5003619;28;20186;-80
2022/12/02 01:43:55;;;;;;;30.30;22.43;;;5.70;99.20;;;;;;5010830;28;20216;-80
2022/12/02 01:46:21;;;;;;;31.80;22.37;;;5.70;99.50;;;;;;5010003;28;20246;-82
2022/12/02 01:48:48;;;;;;;29.63;22.90;;;5.70;99.90;;;;;;5007349;28;20193;-79
2022/12/02 01:51:13;;;;;;;31.87;23.13;;;5.70;99.30;;;;;;5003220;28;20190;-81
2022/12/02 01:53:40;;;;;;;35.83;24.40;;;5.80;98.50;;;;;;5003522;28;20256;-81
2022/12/02 01:56:09;;;;;;;31.60;22.37;;;5.70;98.70;;;;;;5003410;28;20198;-80
2022/12/02 01:58:35;;;;;;;29.93;22.70;;;5.70;99.10;;;;;;5003344;28;20225;-81
2022/12/02 02:01:02;;;;;;;29.50;23.20;;;5.70;99.80;;;;;;5002727;28;20178;-81
2022/12/02 02:03:27;;;;;;;28.20;22.77;;;5.60;99.60;;;;;;5002281;28;20202;-79
2022/12/02 02:05:54;;;;;;;30.87;23.13;;;5.70;99.60;;;;;;5003612;28;20292;-82
2022/12/02 02:08:20;;;;;;;33.17;23.67;;;5.70;99.70;;;;;;5003136;28;20202;-81
2022/12/02 02:10:47;;;;;;;30.53;23.30;;;5.70;99.80;;;;;;5002875;28;20205;-83
2022/12/02 02:13:15;;;;;;;32.57;24.40;;;5.80;99.00;;;;;;4993870;28;20228;-81
2022/12/02 02:15:42;;;;;;;30.40;23.17;;;5.70;99.00;;;;;;4999277;28;20725;-82
2022/12/02 02:18:08;;;;;;;32.67;25.27;;;5.60;99.90;;;;;;5003010;28;20186;-82
2022/12/02 02:20:38;;;;;;;32.50;22.60;;;5.50;99.90;;;;;;5003114;28;20181;-81
2022/12/02 02:23:07;;;;;;;34.80;23.37;;;5.50;99.90;;;;;;5002994;28;20284;-80
2022/12/02 02:25:38;;;;;;;28.00;21.83;;;5.50;99.90;;;;;;5002971;28;20206;-80
2022/12/02 02:28:04;;;;;;;32.03;22.60;;;5.50;99.90;;;;;;5002335;28;20190;-81
2022/12/02 02:30:31;;;;;;;30.57;22.00;;;5.60;99.90;;;;;;5002675;28;20197;-81
2022/12/02 02:33:02;;;;;;;30.17;22.97;;;5.70;99.90;;;;;;5002379;28;20831;-82
2022/12/02 02:35:29;;;;;;;31.07;23.50;;;5.70;99.90;;;;;;5017761;28;20191;-80
2022/12/02 02:37:55;;;;;;;29.60;22.60;;;5.70;99.90;;;;;;5002590;28;20237;-80
2022/12/02 02:40:23;;;;;;;28.40;21.63;;;5.70;99.90;;;;;;5002361;28;20300;-80
2022/12/02 02:42:57;;;;;;;34.83;24.67;;;5.80;99.90;;;;;;5002446;28;20206;-82
2022/12/02 02:45:25;;;;;;;29.80;23.17;;;5.80;99.90;;;;;;5002251;28;20687;-81
2022/12/02 02:47:52;;;;;;;31.17;23.60;;;5.70;99.90;;;;;;4989099;28;20186;-81
2022/12/02 02:50:19;;;;;;;31.97;23.90;;;5.70;99.90;;;;;;4993496;28;20182;-80
2022/12/02 02:52:45;;;;;;;34.03;23.37;;;5.70;99.90;;;;;;5017300;28;20213;-79
2022/12/02 02:55:18;;;;;;;29.87;22.80;;;5.70;99.90;;;;;;5001973;28;20242;-80
2022/12/02 02:57:44;;;;;;;31.27;22.60;;;5.60;99.90;;;;;;5001837;28;20193;-81
2022/12/02 03:00:11;;;;;;;31.63;24.63;;;5.60;99.90;;;;;;5002050;28;20190;-81
2022/12/02 03:02:37;;;;;;;32.60;23.30;;;5.50;99.90;;;;;;5002826;28;20220;-80
2022/12/02 03:05:04;;;;;;;32.07;23.63;;;5.40;99.90;;;;;;5002015;28;20206;-81
2022/12/02 03:07:30;;;;;;;34.03;24.10;;;5.40;99.90;;;;;;5002185;28;20192;-81
2022/12/02 03:09:56;;;;;;;31.93;23.87;;;5.40;99.90;;;;;;5002413;28;20209;-80
2022/12/02 03:12:22;;;;;;;33.17;23.50;;;5.30;99.90;;;;;;5002081;28;20790;-81
2022/12/02 03:14:48;;;;;;;30.50;23.97;;;5.40;99.90;;;;;;5003129;28;20233;-83
2022/12/02 03:17:14;;;;;;;32.43;23.43;;;5.30;99.90;;;;;;5001130;28;20190;-82
2022/12/02 03:19:41;;;;;;;34.67;23.67;;;5.30;99.90;;;;;;5002191;28;20193;-82
2022/12/02 03:22:09;;;;;;;32.50;24.00;;;5.40;99.90;;;;;;5002988;28;20226;-81
2022/12/02 03:24:36;;;;;;;34.20;23.80;;;5.40;99.90;;;;;;5002463;28;20242;-80
2022/12/02 03:27:03;;;;;;;33.70;24.07;;;5.40;99.90;;;;;;5002762;28;20186;-81
2022/12/02 03:29:29;;;;;;;31.57;23.00;;;5.50;99.90;;;;;;5004186;28;20209;-80
2022/12/02 03:31:58;;;;;;;32.10;22.57;;;5.40;99.90;;;;;;5006534;28;20206;-81
2022/12/02 03:34:24;;;;;;;29.97;22.43;;;5.50;99.90;;;;;;5005857;28;20217;-79
2022/12/02 03:36:49;;;;;;;36.00;25.40;;;5.40;99.90;;;;;;5005675;28;20202;-80
2022/12/02 03:39:16;;;;;;;34.87;23.10;;;5.50;99.90;;;;;;5020529;28;20220;-81
2022/12/02 03:41:43;;;;;;;33.90;23.90;;;5.40;99.90;;;;;;5004688;28;20324;-81
2022/12/02 03:44:09;;;;;;;35.07;23.20;;;5.40;99.90;;;;;;5002021;28;20213;-82
2022/12/02 03:46:35;;;;;;;31.83;23.43;;;5.40;99.90;;;;;;5004083;28;20183;-81
2022/12/02 03:49:01;;;;;;;30.57;23.53;;;5.40;99.90;;;;;;5005970;28;20182;-80
2022/12/02 03:51:30;;;;;;;32.00;22.60;;;5.30;99.90;;;;;;5004862;28;20221;-80
2022/12/02 03:53:56;;;;;;;33.33;23.57;;;5.30;99.90;;;;;;5005980;28;20182;-80
2022/12/02 03:56:22;;;;;;;34.47;23.67;;;5.20;99.90;;;;;;5006441;28;20182;-82
2022/12/02 03:58:50;;;;;;;27.13;22.40;;;5.20;99.90;;;;;;5005938;28;20178;-80
2022/12/02 04:01:18;;;;;;;31.57;22.83;;;5.20;99.90;;;;;;5005665;28;20190;-82
2022/12/02 04:03:44;;;;;;;31.40;22.70;;;5.20;99.90;;;;;;5005517;28;20293;-81
2022/12/02 04:06:10;;;;;;;33.53;22.37;;;5.20;99.90;;;;;;5005399;28;20265;-82
2022/12/02 04:08:36;;;;;;;30.00;21.57;;;5.20;99.90;;;;;;5006020;28;20194;-81
2022/12/02 04:11:02;;;;;;;30.73;22.53;;;5.20;99.90;;;;;;5006474;28;20182;-82
2022/12/02 04:13:28;;;;;;;32.73;22.13;;;5.20;99.90;;;;;;5005549;28;20202;-82
2022/12/02 04:15:54;;;;;;;34.60;23.50;;;5.30;99.90;;;;;;5004397;28;20567;-82
2022/12/02 04:18:20;;;;;;;33.20;22.60;;;5.20;99.90;;;;;;5001401;28;20282;-81
2022/12/02 04:20:46;;;;;;;29.93;20.77;;;5.30;99.90;;;;;;5004820;28;20462;-80
2022/12/02 04:23:12;;;;;;;35.07;25.07;;;5.20;99.90;;;;;;5004708;28;20230;-81
2022/12/02 04:25:37;;;;;;;29.13;21.40;;;5.20;99.90;;;;;;5004666;28;20222;-81
2022/12/02 04:28:03;;;;;;;26.70;20.87;;;5.20;99.90;;;;;;5020995;28;20194;-81
2022/12/02 04:30:29;;;;;;;31.07;23.83;;;5.20;99.90;;;;;;5006762;28;20209;-81
2022/12/02 04:32:55;;;;;;;34.17;22.73;;;5.30;99.90;;;;;;5009667;28;20232;-82
2022/12/02 04:35:20;;;;;;;33.60;22.80;;;5.30;99.90;;;;;;5009212;28;20194;-81
2022/12/02 04:37:46;;;;;;;32.47;21.47;;;5.30;99.90;;;;;;5011291;28;20190;-84
2022/12/02 04:40:12;;;;;;;31.77;21.67;;;5.40;99.90;;;;;;4998017;28;20186;-81
2022/12/02 04:42:38;;;;;;;29.77;21.67;;;5.40;99.90;;;;;;5020388;28;20210;-82
2022/12/02 04:45:04;;;;;;;33.73;22.77;;;5.50;99.90;;;;;;5004865;28;20390;-83
2022/12/02 04:47:30;;;;;;;34.47;23.97;;;5.40;99.90;;;;;;5005663;28;20283;-83
2022/12/02 04:49:56;;;;;;;33.07;21.93;;;5.30;99.90;;;;;;5019876;28;20208;-80
2022/12/02 04:52:22;;;;;;;31.03;20.93;;;5.30;99.90;;;;;;5004876;28;20202;-81
2022/12/02 04:54:47;;;;;;;32.40;22.53;;;5.30;99.90;;;;;;5005228;28;20186;-81
2022/12/02 04:57:13;;;;;;;29.53;23.17;;;5.30;99.90;;;;;;5005185;28;20191;-82
2022/12/02 04:59:39;;;;;;;33.23;22.43;;;5.40;99.90;;;;;;5002755;28;20601;-81
2022/12/02 05:02:04;;;;;;;29.00;21.17;;;5.30;99.90;;;;;;5003969;28;20214;-79
2022/12/02 05:04:30;;;;;;;31.83;22.33;;;5.30;99.90;;;;;;5018250;28;20280;-81
2022/12/02 05:06:56;;;;;;;38.10;26.37;;;5.40;99.90;;;;;;5004055;28;20723;-81
2022/12/02 05:09:21;;;;;;;33.20;26.63;;;5.40;99.90;;;;;;5002782;28;20196;-79
2022/12/02 05:11:47;;;;;;;29.30;22.43;;;5.30;99.90;;;;;;5004313;28;20182;-80
2022/12/02 05:14:13;;;;;;;29.73;21.70;;;5.20;99.90;;;;;;5003342;28;20629;-81
2022/12/02 05:16:38;;;;;;;30.87;23.27;;;5.20;99.90;;;;;;5006432;28;20182;-80
2022/12/02 05:19:04;;;;;;;29.97;23.80;;;5.20;99.90;;;;;;5005639;28;20209;-80
2022/12/02 05:21:30;;;;;;;29.40;20.83;;;5.20;99.90;;;;;;5005122;28;20186;-80
2022/12/02 05:23:55;;;;;;;29.63;22.47;;;5.10;99.90;;;;;;5004405;28;20228;-81
2022/12/02 05:26:21;;;;;;;33.23;22.67;;;5.20;99.90;;;;;;5002947;28;20225;-80
2022/12/02 05:28:47;;;;;;;31.40;23.33;;;5.20;99.90;;;;;;5003458;28;20691;-82
2022/12/02 05:31:13;;;;;;;27.83;21.43;;;5.30;99.90;;;;;;5003290;28;20576;-80
2022/12/02 05:33:38;;;;;;;26.10;21.43;;;5.30;99.90;;;;;;5000953;28;20210;-81
2022/12/02 05:36:04;;;;;;;32.60;22.10;;;5.40;99.90;;;;;;4989842;28;20190;-81
2022/12/02 05:38:30;;;;;;;28.77;20.63;;;5.40;99.90;;;;;;4998617;28;20672;-82
2022/12/02 05:40:56;;;;;;;26.77;20.20;;;5.50;99.90;;;;;;4998454;28;20190;-82
2022/12/02 05:43:24;;;;;;;28.50;20.60;;;5.50;99.90;;;;;;4999050;28;20329;-81
2022/12/02 05:45:50;;;;;;;28.53;20.93;;;5.60;99.90;;;;;;4999198;28;20210;-81
2022/12/02 05:48:18;;;;;;;30.73;21.73;;;5.60;99.90;;;;;;4999954;28;20186;-81
2022/12/02 05:50:45;;;;;;;28.70;22.13;;;5.70;99.90;;;;;;4996792;28;20282;-82
2022/12/02 05:53:25;;;;;;;31.90;23.53;;;5.60;99.90;;;;;;4999739;28;20202;-81
2022/12/02 05:55:55;;;;;;;33.27;23.07;;;5.60;99.90;;;;;;5012100;28;20213;-81
2022/12/02 05:58:22;;;;;;;32.60;22.60;;;5.50;99.90;;;;;;4999532;28;20197;-81
2022/12/02 06:00:56;;;;;;;28.90;22.20;;;5.50;99.90;;;;;;4999458;28;20190;-81
2022/12/02 06:03:23;;;;;;;36.70;24.47;;;5.50;99.90;;;;;;5000307;28;20285;-82
2022/12/02 06:05:49;;;;;;;35.17;22.23;;;5.50;99.90;;;;;;5000469;28;20209;-81
2022/12/02 06:08:29;;;;;;;26.93;21.73;;;5.60;99.90;;;;;;4999246;28;20645;-81
2022/12/02 06:11:04;;;;;;;30.40;22.57;;;5.60;99.90;;;;;;5014477;28;20186;-81
2022/12/02 06:13:37;;;;;;;32.60;23.50;;;5.60;99.90;;;;;;5000650;28;20220;-81
2022/12/02 06:16:06;;;;;;;30.90;23.47;;;5.50;99.90;;;;;;4995259;28;20209;-82
2022/12/02 06:18:34;;;;;;;32.00;23.03;;;5.50;99.90;;;;;;4989240;28;20190;-82
2022/12/02 06:21:09;;;;;;;28.63;21.10;;;5.50;99.90;;;;;;5001048;28;20203;-80
2022/12/02 06:23:44;;;;;;;30.83;24.00;;;5.60;99.90;;;;;;4956066;28;1104688;-81
2022/12/02 06:26:13;;;;;;;28.70;21.17;;;5.50;99.90;;;;;;5001530;28;20217;-79
2022/12/02 06:28:43;;;;;;;29.13;21.37;;;5.60;99.90;;;;;;4999409;28;20182;-83
2022/12/02 06:31:38;;;;;;;28.30;20.13;;;5.60;99.90;;;;;;5000207;28;20541;-82
2022/12/02 06:34:30;;;;;;;28.63;21.90;;;5.50;99.90;;;;;;4990337;28;20195;-82
2022/12/02 06:36:58;;;;;;;31.87;22.43;;;5.50;99.90;;;;;;5002123;28;20209;-81
2022/12/02 06:39:24;;;;;;;30.90;23.17;;;5.40;99.90;;;;;;4997198;28;20201;-81
2022/12/02 06:41:51;;;;;;;30.47;22.33;;;5.40;99.90;;;;;;5001713;28;20217;-81
2022/12/02 06:47:31;;;;;;;29.07;20.37;;;5.30;99.90;;;;;;5000294;28;20250;-81
2022/12/02 06:50:01;;;;;;;30.70;22.20;;;5.30;99.90;;;;;;4994543;28;20182;-81
2022/12/02 06:52:26;;;;;;;28.23;21.73;;;5.20;99.90;;;;;;5001282;28;20226;-82
2022/12/02 06:54:52;;;;;;;32.40;24.60;;;5.10;99.90;;;;;;5004268;28;20198;-80
2022/12/02 06:57:19;;;;;;;32.23;25.20;;;5.10;99.90;;;;;;5000908;28;20288;-82
2022/12/02 06:59:50;;;;;;;32.57;23.10;;;5.10;99.90;;;;;;5017387;28;20662;-82
2022/12/02 07:02:27;;;;;;;31.27;21.10;;;5.00;99.90;;;;;;5000997;28;20217;-82
2022/12/02 07:04:54;;;;;;;24.03;20.23;;;5.00;99.90;;;;;;4988295;28;20206;-80
2022/12/02 07:07:21;;;;;;;30.87;22.33;;;5.00;99.90;;;;;;5005569;28;20194;-80
2022/12/02 07:09:52;;;;;;;29.27;21.80;;;5.10;99.90;;;;;;5004850;28;20190;-81
2022/12/02 07:12:41;;;;;;;26.47;20.17;;;5.10;99.90;;;;;;5005926;28;20221;-80
2022/12/02 07:15:23;;;;;;;28.50;20.10;;;5.10;99.90;;;;;;5006152;28;20241;-82
2022/12/02 07:17:49;;;;;;;27.90;19.13;;;5.20;99.90;;;;;;5001116;28;20194;-83
2022/12/02 07:20:28;;;;;;;28.93;20.70;;;5.30;99.90;;;;;;5016754;28;20208;-83
2022/12/02 07:23:22;;;;;;;27.60;18.90;;;5.30;99.90;;;;;;5015371;28;20221;-82
2022/12/02 07:25:53;;;;;;;31.50;21.20;;;5.40;99.90;;;;;;5020080;28;20190;-83
2022/12/02 07:28:36;;;;;;;28.73;20.40;;;5.40;99.90;;;;;;5019215;28;20228;-83
2022/12/02 07:31:17;;;;;;;25.57;20.07;;;5.50;99.90;;;;;;5003995;28;20194;-82
2022/12/02 07:33:43;;;;;;;26.23;21.17;;;5.40;99.90;;;;;;5000703;28;20210;-81
2022/12/02 07:36:09;;;;;;;25.30;19.13;;;5.50;99.90;;;;;;5004283;28;20212;-81
2022/12/02 07:38:35;;;;;;;33.30;24.80;;;5.60;99.90;;;;;;5006107;28;20205;-81
2022/12/02 07:41:01;;;;;;;29.83;22.73;;;5.60;99.90;;;;;;5003612;28;20224;-81
2022/12/02 07:43:26;;;;;;;29.27;19.77;;;5.60;99.90;;;;;;5004337;28;20220;-80
2022/12/02 07:45:52;;;;;;;24.80;18.73;;;5.60;99.90;;;;;;5003582;28;20333;-83
2022/12/02 07:48:18;;;;;;;27.03;19.97;;;5.60;99.90;;;;;;5002693;28;20194;-80
2022/12/02 07:50:44;;;;;;;29.13;19.37;;;5.70;99.90;;;;;;5017829;28;20186;-81
2022/12/02 07:53:09;;;;;;;25.60;19.17;;;5.70;99.90;;;;;;5002376;28;20210;-81
2022/12/02 07:55:35;;;;;;;26.57;20.20;;;5.80;99.90;;;;;;5003612;28;20186;-79
2022/12/02 07:58:01;;;;;;;24.47;19.27;;;5.80;99.90;;;;;;5003134;28;20277;-81
2022/12/02 08:00:27;;;;;;;30.17;21.93;;;5.70;99.90;;;;;;5002441;28;20189;-82
2022/12/02 08:02:54;;;;;;;28.00;20.13;;;5.70;99.90;;;;;;5001545;28;20806;-81
2022/12/02 08:05:21;;;;;;;29.73;21.23;;;5.70;99.90;;;;;;5002403;28;20209;-80
2022/12/02 08:07:46;;;;;;;29.23;21.73;;;5.60;99.90;;;;;;5000309;28;20186;-81
2022/12/02 08:10:12;;;;;;;32.10;21.50;;;5.50;99.90;;;;;;4999393;28;20190;-81
2022/12/02 08:12:38;;;;;;;28.27;20.33;;;5.40;99.90;;;;;;5003064;28;20214;-81
2022/12/02 08:15:08;;;;;;;31.17;22.00;;;5.40;99.90;;;;;;5000889;28;20194;-81
2022/12/02 08:17:34;;;;;;;27.23;19.70;;;5.40;99.90;;;;;;5017664;28;20216;-80
2022/12/02 08:20:00;;;;;;;29.93;20.63;;;5.40;99.90;;;;;;5002301;28;20198;-81
2022/12/02 08:22:26;;;;;;;29.73;20.57;;;5.40;99.90;;;;;;5017393;28;20290;-81
2022/12/02 08:24:54;;;;;;;31.33;21.03;;;5.30;99.90;;;;;;5013255;28;20245;-81
2022/12/02 08:27:20;;;;;;;33.83;21.97;;;5.30;99.90;;;;;;5002623;28;20189;-81
2022/12/02 08:29:48;;;;;;;30.53;22.10;;;5.30;99.90;;;;;;5002586;28;20183;-82
2022/12/02 08:32:17;;;;;;;28.67;20.90;;;5.30;99.90;;;;;;5002781;28;20203;-82
2022/12/02 08:34:43;;;;;;;31.67;20.93;;;5.30;99.90;;;;;;5018732;28;20206;-81
2022/12/02 08:37:10;;;;;;;31.73;21.07;;;5.40;99.90;;;;;;5003278;28;20183;-82
2022/12/02 08:39:35;;;;;;;28.53;20.87;;;5.30;99.90;;;;;;5002776;28;20195;-81
2022/12/02 08:42:01;;;;;;;31.10;21.43;;;5.40;99.90;;;;;;5001643;28;20286;-81
2022/12/02 08:44:27;;;;;;;29.83;21.73;;;5.40;99.90;;;;;;5003356;28;20551;-82
2022/12/02 08:46:54;;;;;;;30.43;21.20;;;5.30;99.90;;;;;;5003143;28;20266;-81
2022/12/02 08:49:19;;;;;;;31.20;21.03;;;5.30;99.90;;;;;;5003281;28;20232;-81
2022/12/02 08:51:45;;;;;;;31.53;20.80;;;5.30;99.90;;;;;;5003308;28;20182;-81
2022/12/02 08:54:13;;;;;;;31.60;22.73;;;5.20;99.90;;;;;;5002796;28;20218;-81
2022/12/02 08:56:38;;;;;;;33.13;23.00;;;5.20;99.90;;;;;;5002386;28;20190;-80
2022/12/02 08:59:04;;;;;;;30.77;20.63;;;5.20;99.90;;;;;;5001900;28;20259;-80
2022/12/02 09:01:30;;;;;;;30.47;21.40;;;5.20;99.90;;;;;;5001932;28;20194;-83
2022/12/02 09:03:55;;;;;;;26.97;20.40;;;5.20;99.90;;;;;;5003083;28;20214;-82
2022/12/02 09:06:21;;;;;;;30.87;22.03;;;5.20;99.90;;;;;;4992943;28;20213;-81
2022/12/02 09:08:47;;;;;;;32.83;23.73;;;5.30;99.90;;;;;;5001020;28;20196;-82
2022/12/02 09:11:12;;;;;;;29.40;21.87;;;5.20;99.90;;;;;;5000881;28;20205;-82
2022/12/02 09:13:38;;;;;;;27.90;21.43;;;5.20;99.90;;;;;;5005498;28;20213;-80
2022/12/02 09:16:04;;;;;;;30.80;20.57;;;5.20;99.90;;;;;;5007234;28;20190;-80
2022/12/02 09:18:30;;;;;;;29.13;19.87;;;5.10;99.90;;;;;;5008324;28;20278;-82
2022/12/02 09:20:55;;;;;;;28.83;20.60;;;5.20;99.90;;;;;;5003785;28;20761;-80
2022/12/02 09:23:21;;;;;;;33.27;21.10;;;5.30;99.90;;;;;;5002574;28;20221;-80
2022/12/02 09:25:46;;;;;;;24.67;19.17;;;5.30;99.90;;;;;;5002792;28;20213;-82
2022/12/02 09:28:12;;;;;;;31.10;21.13;;;5.20;99.90;;;;;;4994745;28;20290;-82
2022/12/02 09:30:38;;;;;;;36.73;22.10;;;5.20;99.90;;;;;;5000625;28;20189;-82
2022/12/02 09:33:04;;;;;;;27.90;19.90;;;5.10;99.90;;;;;;5014675;28;20199;-80
2022/12/02 09:35:30;;;;;;;25.47;19.13;;;5.10;99.90;;;;;;5000415;28;20204;-81
2022/12/02 09:37:55;;;;;;;27.33;18.07;;;5.20;99.90;;;;;;5001727;28;20190;-82
2022/12/02 09:40:21;;;;;;;27.40;19.33;;;5.20;99.90;;;;;;5000580;28;20196;-80
2022/12/02 09:42:49;;;;;;;30.93;22.00;;;5.30;99.90;;;;;;4999706;28;20214;-83
2022/12/02 09:45:15;;;;;;;28.53;20.03;;;5.40;99.90;;;;;;5001189;28;20226;-81
2022/12/02 09:47:41;;;;;;;27.57;19.63;;;5.40;99.90;;;;;;5000171;28;20636;-81
2022/12/02 09:50:09;;;;;;;28.90;21.27;;;5.40;99.90;;;;;;5001186;28;20198;-82
2022/12/02 09:52:35;;;;;;;25.80;19.93;;;5.40;99.90;;;;;;5002613;28;20297;-82
2022/12/02 09:55:01;;;;;;;26.30;19.40;;;5.30;99.90;;;;;;5000204;28;20214;-82
2022/12/02 09:57:31;;;;;;;26.47;20.07;;;5.30;99.90;;;;;;5001301;28;20241;-81
2022/12/02 09:59:59;;;;;;;26.50;19.90;;;5.40;99.90;;;;;;5015386;28;20197;-80
2022/12/02 10:02:36;;;;;;;29.50;19.87;;;5.40;99.90;;;;;;4999711;28;20222;-81
2022/12/02 10:05:15;;;;;;;28.20;21.03;;;5.40;99.90;;;;;;4999187;28;20685;-80
2022/12/02 10:07:42;;;;;;;28.03;21.13;;;5.30;99.90;;;;;;5000937;28;20182;-82
2022/12/02 10:10:21;;;;;;;29.67;21.83;;;5.30;99.90;;;;;;4999823;28;20205;-81
2022/12/02 10:12:47;;;;;;;31.37;21.20;;;5.30;99.90;;;;;;5001199;28;20285;-81
2022/12/02 10:15:16;;;;;;;28.70;21.83;;;5.10;99.90;;;;;;5002071;28;20190;-83
2022/12/02 10:17:44;;;;;;;30.47;21.07;;;5.10;99.90;;;;;;5001229;28;20201;-81
2022/12/02 10:20:22;;;;;;;30.37;20.87;;;5.20;99.90;;;;;;4996067;28;20191;-82
2022/12/02 10:23:06;;;;;;;30.70;21.23;;;5.30;99.90;;;;;;5002117;28;20221;-82
2022/12/02 10:25:33;;;;;;;28.00;20.83;;;5.30;99.90;;;;;;4999494;28;20654;-82
2022/12/02 10:27:58;;;;;;;27.47;19.97;;;5.30;99.90;;;;;;5001863;28;20186;-81
2022/12/02 10:30:26;;;;;;;31.00;21.73;;;5.40;99.90;;;;;;5002079;28;20320;-82
2022/12/02 10:33:03;;;;;;;29.53;21.07;;;5.40;99.90;;;;;;5002024;28;20217;-81
2022/12/02 10:35:45;;;;;;;30.43;20.33;;;5.50;99.90;;;;;;5004522;28;20190;-81
2022/12/02 10:38:32;;;;;;;28.57;20.90;;;5.50;99.90;;;;;;5003243;28;20200;-83
2022/12/02 10:41:14;;;;;;;27.53;20.60;;;5.50;99.90;;;;;;5020079;28;20656;-80
2022/12/02 10:43:51;;;;;;;32.93;22.13;;;5.40;99.90;;;;;;5003544;28;20309;-82
2022/12/02 10:46:21;;;;;;;32.10;21.27;;;5.40;99.90;;;;;;5004152;28;20464;-83
2022/12/02 10:48:47;;;;;;;31.67;21.50;;;5.30;99.90;;;;;;5004600;28;20210;-80
2022/12/02 10:51:15;;;;;;;29.10;21.23;;;5.30;99.90;;;;;;5005010;28;20249;-80
2022/12/02 10:53:43;;;;;;;30.90;22.13;;;5.30;99.90;;;;;;5004010;28;20862;-80
2022/12/02 10:56:19;;;;;;;32.87;21.83;;;5.30;99.90;;;;;;5017730;28;20198;-81
2022/12/02 10:58:46;;;;;;;28.87;21.73;;;5.30;99.90;;;;;;4998743;28;20249;-81
2022/12/02 11:01:12;;;;;;;28.73;20.90;;;5.30;99.90;;;;;;5001823;28;20237;-80
2022/12/02 11:03:39;;;;;;;29.40;20.83;;;5.30;99.90;;;;;;5018642;28;20214;-81
2022/12/02 11:06:18;;;;;;;27.23;20.40;;;5.30;99.90;;;;;;5002587;28;20210;-81
2022/12/02 11:08:44;;;;;;;29.53;21.83;;;5.40;99.90;;;;;;4999583;28;20252;-81
2022/12/02 11:11:35;;;;;;;28.33;21.07;;;5.40;99.90;;;;;;5001206;28;20193;-81
2022/12/02 11:14:04;;;;;;;33.63;20.27;;;5.50;99.90;;;;;;4997195;28;20182;-82
2022/12/02 11:16:36;;;;;;;32.00;21.37;;;5.40;99.90;;;;;;4997765;28;20220;-82
2022/12/02 11:19:21;;;;;;;28.33;21.27;;;5.40;99.90;;;;;;5001901;28;20198;-82
2022/12/02 11:21:47;;;;;;;28.97;20.97;;;5.30;99.90;;;;;;5000624;28;20212;-82
2022/12/02 11:24:21;;;;;;;29.33;20.13;;;5.40;99.90;;;;;;5001315;28;20217;-79
2022/12/02 11:26:59;;;;;;;29.73;21.53;;;5.40;99.90;;;;;;4997900;28;20186;-81
2022/12/02 11:29:27;;;;;;;29.53;22.30;;;5.30;99.90;;;;;;5001266;28;20508;-82
2022/12/02 11:32:24;;;;;;;29.57;20.43;;;5.30;99.90;;;;;;4989712;28;20211;-82
2022/12/02 11:34:58;;;;;;;27.37;21.10;;;5.40;99.90;;;;;;4985765;28;20254;-81
2022/12/02 11:37:33;;;;;;;28.73;21.87;;;5.50;99.90;;;;;;5001965;28;20274;-80
2022/12/02 11:40:00;;;;;;;33.00;24.37;;;5.50;99.90;;;;;;4998944;28;20197;-82
2022/12/02 11:42:28;;;;;;;32.37;23.87;;;5.60;99.90;;;;;;4998892;28;20217;-83
2022/12/02 11:45:32;;;;;;;27.67;21.63;;;5.60;99.90;;;;;;5016824;28;20268;-82
2022/12/02 11:48:00;;;;;;;30.10;20.80;;;5.60;99.90;;;;;;5000826;28;20198;-82
2022/12/02 11:50:27;;;;;;;25.83;18.20;;;5.70;99.90;;;;;;4999130;28;20178;-82
2022/12/02 11:53:03;;;;;;;30.50;24.20;;;5.60;99.90;;;;;;5001510;28;20240;-79
2022/12/02 11:55:35;;;;;;;25.83;19.00;;;5.70;99.90;;;;;;5004824;28;20194;-80
2022/12/02 11:58:02;;;;;;;23.07;17.63;;;5.60;99.90;;;;;;5019308;28;20228;-82
2022/12/02 12:00:33;;;;;;;24.10;20.13;;;5.70;99.90;;;;;;5003200;28;20221;-79
2022/12/02 12:03:14;;;;;;;22.43;17.43;;;5.70;99.90;;;;;;5004432;28;20214;-82
2022/12/02 12:05:43;;;;;;;23.40;16.30;;;5.70;99.90;;;;;;5003545;28;20229;-82
2022/12/02 12:08:08;;;;;;;20.20;15.80;;;5.60;99.90;;;;;;4998993;28;20202;-81
2022/12/02 12:10:38;;;;;;;19.83;15.70;;;5.60;99.90;;;;;;4990813;28;20201;-80
2022/12/02 12:13:19;;;;;;;19.97;15.83;;;5.60;99.90;;;;;;4995287;28;20202;-82
2022/12/02 12:15:50;;;;;;;23.37;16.37;;;5.50;99.90;;;;;;5003061;28;20186;-81
2022/12/02 12:18:47;;;;;;;21.37;16.33;;;5.40;99.90;;;;;;5004309;28;20190;-81
2022/12/02 12:21:34;;;;;;;19.80;15.77;;;5.40;99.90;;;;;;5001840;28;20190;-80
2022/12/02 12:26:44;;;;;;;21.07;15.50;;;5.50;99.90;;;;;;5004813;28;20190;-81
2022/12/02 12:29:10;;;;;;;20.87;16.23;;;5.50;99.90;;;;;;4997340;28;20214;-82
2022/12/02 12:31:36;;;;;;;22.13;16.90;;;5.60;99.90;;;;;;5003585;28;20201;-81
2022/12/02 12:34:02;;;;;;;22.93;16.37;;;5.60;99.90;;;;;;5009280;28;20242;-82
2022/12/02 12:36:29;;;;;;;20.97;16.43;;;5.60;99.90;;;;;;5009314;28;20198;-82
2022/12/02 12:38:54;;;;;;;20.93;16.47;;;5.50;99.90;;;;;;5002038;28;20198;-84
2022/12/02 12:41:20;;;;;;;17.77;14.43;;;5.50;99.90;;;;;;5003922;28;20194;-81
2022/12/02 12:43:46;;;;;;;21.77;16.00;;;5.40;99.90;;;;;;5004268;28;20233;-80
2022/12/02 12:46:11;;;;;;;20.73;15.07;;;5.50;99.90;;;;;;5003521;28;20337;-81
2022/12/02 12:48:37;;;;;;;17.63;14.77;;;5.50;99.90;;;;;;5004063;28;20182;-83
2022/12/02 12:51:03;;;;;;;20.23;15.10;;;5.50;99.90;;;;;;5000687;28;20226;-81